Time;durP1;ratioP1;P1;durP2;ratioP2;P2;SDS_P1;SDS_P2;PMS_P1;PMS_P2;Temp;Humidity;BMP_temperature;BMP_pressure;BME280_temperature;BME280_humidity;BME280_pressure;Samples;Min_cycle;Max_cycle;Signal;HPM_P1;HPM_P2
2024/01/01 00:01:51;;;;;;;1.33;0.85;;;21.70;45.90;;;;;;5117824;28;20043;-42
2024/01/01 00:04:18;;;;;;;1.45;0.98;;;21.70;45.90;;;;;;5116088;28;20050;-41
2024/01/01 00:06:44;;;;;;;1.63;0.80;;;21.70;45.70;;;;;;5110278;28;20069;-40
2024/01/01 00:09:10;;;;;;;0.80;0.70;;;21.70;46.10;;;;;;5118686;28;20052;-40
2024/01/01 00:11:37;;;;;;;2.60;0.90;;;21.70;45.50;;;;;;5113304;27;20020;-40
2024/01/01 00:14:03;;;;;;;3.67;1.00;;;21.70;45.50;;;;;;5112035;28;20012;-41
2024/01/01 00:16:30;;;;;;;2.90;1.02;;;21.70;45.60;;;;;;5109829;28;20043;-41
2024/01/01 00:18:56;;;;;;;1.23;0.82;;;21.70;45.60;;;;;;5110499;28;20416;-41
2024/01/01 00:21:22;;;;;;;2.60;0.90;;;21.70;46.30;;;;;;5115032;28;20035;-41
2024/01/01 00:23:48;;;;;;;2.25;0.85;;;21.70;45.90;;;;;;5118506;28;20028;-41
2024/01/01 00:26:14;;;;;;;1.25;0.90;;;21.70;45.90;;;;;;5114136;28;20126;-42
2024/01/01 00:28:40;;;;;;;1.25;0.80;;;21.70;45.90;;;;;;5109034;28;20020;-41
2024/01/01 00:31:06;;;;;;;1.10;0.90;;;21.70;45.80;;;;;;5090632;28;20035;-39
2024/01/01 00:33:33;;;;;;;1.35;1.00;;;21.70;45.70;;;;;;5113771;28;20012;-41
2024/01/01 00:35:59;;;;;;;2.28;0.98;;;21.70;46.40;;;;;;5119021;28;20016;-39
2024/01/01 00:38:25;;;;;;;1.27;0.90;;;21.60;45.90;;;;;;5114905;27;20035;-41
2024/01/01 00:40:51;;;;;;;1.05;0.80;;;21.60;46.20;;;;;;5121200;28;20024;-40
2024/01/01 00:43:17;;;;;;;3.17;1.00;;;21.60;46.20;;;;;;5107780;28;20036;-42
2024/01/01 00:45:43;;;;;;;2.05;0.90;;;21.70;46.00;;;;;;5116536;28;20463;-42
2024/01/01 00:48:10;;;;;;;2.35;0.93;;;21.70;45.90;;;;;;5116862;28;20083;-40
2024/01/01 00:50:36;;;;;;;1.77;1.00;;;21.70;45.90;;;;;;5117396;27;20127;-41
2024/01/01 00:53:03;;;;;;;1.23;0.80;;;21.70;46.00;;;;;;5117066;27;20023;-41
2024/01/01 00:55:31;;;;;;;1.13;0.88;;;21.70;46.10;;;;;;5116759;28;20019;-43
2024/01/01 00:57:58;;;;;;;1.00;0.82;;;21.60;46.20;;;;;;5107797;28;20032;-40
2024/01/01 01:00:24;;;;;;;1.23;0.70;;;21.60;46.20;;;;;;5108406;28;20030;-41
2024/01/01 01:02:50;;;;;;;1.10;0.88;;;21.70;46.00;;;;;;5116111;28;20043;-41
2024/01/01 01:05:16;;;;;;;1.20;0.82;;;21.70;45.90;;;;;;5112694;28;20587;-41
2024/01/01 01:07:42;;;;;;;2.38;1.17;;;21.70;45.90;;;;;;5115009;27;20028;-40
2024/01/01 01:10:09;;;;;;;1.00;0.90;;;21.60;45.80;;;;;;5109947;27;20038;-40
2024/01/01 01:12:35;;;;;;;1.25;0.90;;;21.60;45.80;;;;;;5114847;28;20020;-41
2024/01/01 01:15:02;;;;;;;1.17;0.98;;;21.60;45.90;;;;;;5112185;28;20038;-40
2024/01/01 01:17:28;;;;;;;1.00;0.90;;;21.60;45.80;;;;;;5111514;28;20103;-41
2024/01/01 01:19:54;;;;;;;1.30;0.98;;;21.60;45.80;;;;;;5107335;28;20062;-40
2024/01/01 01:22:20;;;;;;;3.33;1.20;;;21.60;45.70;;;;;;5111238;28;20130;-41
2024/01/01 01:24:47;;;;;;;2.83;1.10;;;21.60;45.60;;;;;;5114512;27;20400;-41
2024/01/01 01:27:13;;;;;;;1.15;0.90;;;21.60;45.70;;;;;;5107038;28;20117;-39
2024/01/01 01:29:40;;;;;;;1.10;0.90;;;21.60;45.80;;;;;;5112735;28;20034;-41
2024/01/01 01:32:07;;;;;;;1.20;0.90;;;21.60;45.80;;;;;;5099636;27;20057;-41
2024/01/01 01:34:34;;;;;;;1.35;0.98;;;21.60;45.70;;;;;;5105770;28;20047;-40
2024/01/01 01:37:00;;;;;;;2.42;0.93;;;21.60;45.70;;;;;;5096142;28;20027;-41
2024/01/01 01:39:26;;;;;;;1.30;1.10;;;21.60;45.70;;;;;;5115017;28;20034;-40
2024/01/01 01:41:52;;;;;;;1.25;1.15;;;21.60;45.70;;;;;;5092431;28;20087;-41
2024/01/01 01:44:18;;;;;;;1.35;1.25;;;21.60;45.70;;;;;;5112751;28;20036;-41
2024/01/01 01:46:45;;;;;;;2.50;0.93;;;21.60;45.80;;;;;;5111869;28;20024;-41
2024/01/01 01:49:11;;;;;;;1.23;1.00;;;21.60;45.60;;;;;;5097532;27;20024;-43
2024/01/01 01:51:37;;;;;;;1.27;1.05;;;21.60;45.60;;;;;;5092896;28;20036;-41
2024/01/01 01:54:23;;;;;;;1.17;0.98;;;21.60;45.60;;;;;;5114975;28;20031;-39
2024/01/01 01:56:50;;;;;;;2.80;1.05;;;21.60;45.70;;;;;;5058433;28;20043;-41
2024/01/01 01:59:16;;;;;;;1.48;1.10;;;21.60;45.70;;;;;;5058191;28;20053;-41
2024/01/01 02:01:42;;;;;;;1.30;1.17;;;21.50;45.70;;;;;;5058324;28;20100;-40
2024/01/01 02:04:08;;;;;;;1.38;1.02;;;21.50;45.70;;;;;;5041724;28;20037;-40
2024/01/01 02:06:34;;;;;;;0.98;0.80;;;21.60;45.70;;;;;;5037658;28;20060;-40
2024/01/01 02:09:00;;;;;;;2.00;1.00;;;21.60;45.70;;;;;;5036665;28;20156;-40
2024/01/01 02:11:27;;;;;;;1.63;1.10;;;21.60;45.60;;;;;;5052339;28;20239;-41
2024/01/01 02:13:53;;;;;;;1.63;1.15;;;21.60;45.70;;;;;;5057209;28;20062;-37
2024/01/01 02:16:20;;;;;;;1.58;0.85;;;21.60;45.70;;;;;;5040960;28;20029;-41
2024/01/01 02:18:46;;;;;;;1.23;0.95;;;21.70;45.50;;;;;;5058483;28;20025;-39
2024/01/01 02:21:12;;;;;;;2.63;1.00;;;21.90;45.20;;;;;;5038297;28;20068;-41
2024/01/01 02:23:39;;;;;;;1.40;1.00;;;21.90;45.30;;;;;;5053521;28;20060;-40
2024/01/01 02:26:07;;;;;;;1.63;1.23;;;21.80;45.40;;;;;;5055916;28;20573;-39
2024/01/01 02:28:33;;;;;;;1.45;1.00;;;21.70;45.60;;;;;;5058823;28;20037;-41
2024/01/01 02:31:00;;;;;;;2.85;1.23;;;21.70;45.70;;;;;;5051805;28;20037;-40
2024/01/01 02:33:26;;;;;;;1.70;0.90;;;21.70;45.70;;;;;;5061936;28;20457;-40
2024/01/01 02:35:52;;;;;;;2.40;1.40;;;21.70;45.60;;;;;;5109320;28;20027;-40
2024/01/01 02:38:18;;;;;;;1.83;1.60;;;21.60;45.70;;;;;;5119602;28;20025;-41
2024/01/01 02:40:44;;;;;;;1.55;1.10;;;21.50;45.80;;;;;;5116291;28;20028;-41
2024/01/01 02:43:10;;;;;;;2.03;1.27;;;21.50;46.00;;;;;;5111414;28;20023;-40
2024/01/01 02:45:37;;;;;;;2.55;1.30;;;21.50;46.10;;;;;;5103273;28;20036;-40
2024/01/01 02:48:03;;;;;;;1.25;1.15;;;21.50;46.10;;;;;;5113364;28;20114;-40
2024/01/01 02:50:29;;;;;;;0.70;0.70;;;21.60;45.80;;;;;;5098027;28;20691;-42
2024/01/01 02:52:55;;;;;;;1.30;1.08;;;21.80;45.60;;;;;;5123234;28;20038;-39
2024/01/01 02:55:22;;;;;;;2.60;1.20;;;21.80;45.60;;;;;;5108004;28;20092;-39
2024/01/01 02:57:48;;;;;;;1.92;1.25;;;21.70;45.70;;;;;;5113398;28;20024;-40
2024/01/01 03:00:14;;;;;;;1.90;1.17;;;21.70;45.70;;;;;;5105542;28;20107;-37
2024/01/01 03:02:41;;;;;;;1.40;1.20;;;21.60;45.80;;;;;;5109339;28;20031;-40
2024/01/01 03:05:07;;;;;;;1.77;1.45;;;21.60;45.80;;;;;;5120680;28;20103;-40
2024/01/01 03:07:34;;;;;;;1.90;1.40;;;21.60;45.60;;;;;;5111302;28;20034;-40
2024/01/01 03:10:20;;;;;;;1.08;0.95;;;21.60;45.70;;;;;;5108713;28;20032;-38
2024/01/01 03:12:46;;;;;;;2.05;1.33;;;21.50;45.90;;;;;;5049066;28;20036;-39
2024/01/01 03:15:13;;;;;;;1.88;1.30;;;21.50;46.00;;;;;;5058420;28;20094;-38
2024/01/01 03:17:40;;;;;;;7.70;1.20;;;21.40;46.10;;;;;;5050699;28;20029;-40
2024/01/01 03:20:06;;;;;;;3.63;1.33;;;21.40;46.10;;;;;;5059085;28;20115;-42
2024/01/01 03:22:33;;;;;;;1.60;1.13;;;21.50;46.00;;;;;;5057457;28;20020;-39
2024/01/01 03:24:59;;;;;;;3.65;1.40;;;21.80;45.60;;;;;;5052565;28;20045;-39
2024/01/01 03:27:25;;;;;;;4.03;1.45;;;21.80;45.70;;;;;;5055188;28;20025;-41
2024/01/01 03:29:52;;;;;;;3.88;1.40;;;21.70;45.80;;;;;;5058714;28;20044;-40
2024/01/01 03:32:18;;;;;;;2.28;1.33;;;21.70;45.90;;;;;;5061652;28;20128;-40
2024/01/01 03:34:44;;;;;;;2.78;1.48;;;21.60;46.00;;;;;;5059311;28;20045;-41
2024/01/01 03:37:10;;;;;;;2.13;1.25;;;21.60;45.80;;;;;;5061838;28;20041;-39
2024/01/01 03:39:37;;;;;;;1.95;1.40;;;21.60;46.30;;;;;;5061962;28;20033;-40
2024/01/01 03:42:03;;;;;;;3.00;1.45;;;21.50;45.80;;;;;;5061444;28;20096;-39
2024/01/01 03:44:29;;;;;;;2.05;1.48;;;21.50;45.90;;;;;;5059038;28;20623;-40
2024/01/01 03:46:56;;;;;;;1.55;1.45;;;21.50;46.00;;;;;;5061719;28;20041;-39
2024/01/01 03:49:22;;;;;;;2.20;1.50;;;21.40;46.10;;;;;;5077259;28;20065;-40
2024/01/01 03:51:49;;;;;;;2.25;1.52;;;21.50;46.00;;;;;;5110083;28;20081;-40
2024/01/01 03:54:15;;;;;;;2.20;1.55;;;21.60;45.80;;;;;;5116769;27;20027;-38
2024/01/01 03:56:41;;;;;;;2.05;1.50;;;21.70;45.80;;;;;;5112761;27;20024;-40
2024/01/01 03:59:07;;;;;;;1.50;1.40;;;21.70;45.80;;;;;;5118581;27;20084;-39
2024/01/01 04:01:35;;;;;;;4.95;1.40;;;21.60;45.80;;;;;;5112045;28;20028;-40
2024/01/01 04:04:03;;;;;;;3.03;1.60;;;21.60;46.00;;;;;;5110893;28;20024;-40
2024/01/01 04:06:29;;;;;;;1.75;1.30;;;21.50;46.10;;;;;;5112663;28;20053;-40
2024/01/01 04:08:59;;;;;;;1.70;1.60;;;21.50;46.00;;;;;;5116636;28;20031;-41
2024/01/01 04:11:25;;;;;;;3.20;2.17;;;21.50;45.90;;;;;;5114263;27;20032;-40
2024/01/01 04:13:51;;;;;;;2.05;1.70;;;21.50;46.10;;;;;;5123570;28;20019;-39
2024/01/01 04:16:17;;;;;;;4.97;1.77;;;21.40;46.10;;;;;;5122367;27;20035;-39
2024/01/01 04:18:43;;;;;;;2.83;1.75;;;21.40;46.20;;;;;;5119293;28;20023;-40
2024/01/01 04:21:09;;;;;;;2.25;1.92;;;21.40;46.10;;;;;;5116377;28;20036;-40
2024/01/01 04:23:36;;;;;;;2.15;1.67;;;21.50;46.10;;;;;;5084675;28;20020;-41
2024/01/01 04:26:02;;;;;;;2.40;1.77;;;21.70;45.80;;;;;;5106194;28;20047;-41
2024/01/01 04:28:28;;;;;;;2.25;1.40;;;21.80;45.60;;;;;;5122857;27;20024;-40
2024/01/01 04:30:54;;;;;;;2.40;1.63;;;21.70;45.70;;;;;;5119341;28;20040;-41
2024/01/01 04:33:21;;;;;;;2.63;1.80;;;21.60;45.70;;;;;;5121215;28;20055;-41
2024/01/01 04:35:47;;;;;;;2.08;1.58;;;21.60;45.80;;;;;;5122977;28;20084;-40
2024/01/01 04:38:13;;;;;;;3.20;1.80;;;21.50;45.90;;;;;;5108965;28;20032;-40
2024/01/01 04:40:40;;;;;;;1.98;1.75;;;21.50;45.80;;;;;;5122027;28;20027;-40
2024/01/01 04:43:06;;;;;;;2.33;1.70;;;21.50;45.70;;;;;;5096694;27;20035;-40
2024/01/01 04:45:35;;;;;;;3.00;1.83;;;21.50;45.90;;;;;;5110332;28;20047;-40
2024/01/01 04:48:02;;;;;;;2.03;1.50;;;21.40;45.90;;;;;;5110557;28;20028;-40
2024/01/01 04:50:30;;;;;;;2.05;1.65;;;21.40;46.00;;;;;;5111003;28;20108;-39
2024/01/01 04:52:56;;;;;;;2.85;2.03;;;21.40;45.90;;;;;;5114530;27;20076;-41
2024/01/01 04:55:23;;;;;;;1.77;1.45;;;21.50;45.90;;;;;;5110342;27;20084;-39
2024/01/01 04:57:49;;;;;;;1.80;1.48;;;21.60;45.80;;;;;;5106591;28;20715;-39
2024/01/01 05:00:15;;;;;;;1.73;1.63;;;21.70;45.60;;;;;;5112714;28;20028;-40
2024/01/01 05:02:41;;;;;;;2.10;1.80;;;21.80;45.40;;;;;;5120099;28;20045;-39
2024/01/01 05:05:08;;;;;;;1.77;1.65;;;21.90;45.50;;;;;;5117994;27;20347;-40
2024/01/01 05:07:37;;;;;;;3.05;1.48;;;22.00;45.20;;;;;;5111544;28;20032;-41
2024/01/01 05:10:04;;;;;;;2.92;1.73;;;22.10;45.20;;;;;;5111700;28;20096;-40
2024/01/01 05:12:30;;;;;;;2.33;1.73;;;22.10;45.10;;;;;;5120615;27;20036;-40
2024/01/01 05:14:57;;;;;;;2.28;1.95;;;22.00;45.10;;;;;;5122109;28;20089;-40
2024/01/01 05:17:23;;;;;;;2.50;1.63;;;22.00;45.40;;;;;;5120037;27;20020;-40
2024/01/01 05:19:50;;;;;;;1.98;1.77;;;21.90;45.50;;;;;;5108986;28;20050;-39
2024/01/01 05:22:16;;;;;;;1.93;1.70;;;21.80;45.60;;;;;;5112395;28;20032;-40
2024/01/01 05:24:42;;;;;;;1.98;1.77;;;21.80;45.60;;;;;;5109977;28;20292;-40
2024/01/01 05:27:09;;;;;;;2.30;1.95;;;21.80;45.40;;;;;;5109698;28;20031;-40
2024/01/01 05:29:35;;;;;;;2.47;1.95;;;21.80;45.30;;;;;;5117309;28;20035;-40
2024/01/01 05:32:01;;;;;;;2.20;1.90;;;21.70;45.50;;;;;;5115232;28;20112;-40
2024/01/01 05:34:27;;;;;;;2.33;1.90;;;21.60;45.50;;;;;;5107561;27;20058;-39
2024/01/01 05:36:53;;;;;;;3.55;1.95;;;21.60;45.50;;;;;;5111419;28;20036;-38
2024/01/01 05:39:20;;;;;;;2.28;1.90;;;21.50;45.60;;;;;;5118867;27;20049;-39
2024/01/01 05:41:46;;;;;;;1.70;1.60;;;21.60;45.30;;;;;;5112265;28;20835;-39
2024/01/01 05:44:12;;;;;;;2.70;2.33;;;21.60;45.40;;;;;;5128158;27;20084;-40
2024/01/01 05:46:38;;;;;;;2.65;1.90;;;21.80;45.30;;;;;;5114181;28;20024;-37
2024/01/01 05:49:04;;;;;;;2.67;1.90;;;21.90;45.00;;;;;;5113270;28;20154;-39
2024/01/01 05:51:30;;;;;;;2.50;2.05;;;22.00;44.90;;;;;;5113290;28;20044;-40
2024/01/01 05:53:57;;;;;;;3.28;1.95;;;22.10;44.90;;;;;;5111388;28;20512;-39
2024/01/01 05:56:24;;;;;;;;;;;22.20;44.80;;;;;;5109220;27;20024;-40
2024/01/01 05:58:50;;;;;;;2.90;2.47;;;22.20;44.80;;;;;;5104885;28;19923;-40
2024/01/01 06:01:17;;;;;;;3.28;2.40;;;22.10;44.80;;;;;;5113805;28;20057;-39
2024/01/01 06:03:44;;;;;;;3.00;2.60;;;22.00;44.90;;;;;;5110395;28;20032;-39
2024/01/01 06:06:10;;;;;;;;;;;21.90;45.20;;;;;;5105602;28;20581;-39
2024/01/01 06:08:36;;;;;;;2.42;2.03;;;21.90;45.20;;;;;;5115624;28;19912;-40
2024/01/01 06:11:02;;;;;;;2.63;2.22;;;21.80;45.10;;;;;;5110954;28;20027;-40
2024/01/01 06:13:29;;;;;;;3.45;2.35;;;21.80;44.80;;;;;;5110912;28;20023;-40
2024/01/01 06:15:55;;;;;;;3.05;2.75;;;21.80;44.90;;;;;;5111550;28;20118;-38
2024/01/01 06:18:22;;;;;;;3.15;2.50;;;21.70;45.10;;;;;;5116499;28;20054;-39
2024/01/01 06:20:48;;;;;;;3.50;2.75;;;21.70;45.20;;;;;;5114052;28;20069;-40
2024/01/01 06:23:15;;;;;;;2.80;2.50;;;21.60;45.20;;;;;;5116110;28;20028;-37
2024/01/01 06:25:42;;;;;;;2.60;2.40;;;21.60;45.20;;;;;;5113398;28;20032;-38
2024/01/01 06:28:08;;;;;;;4.00;2.90;;;21.60;45.10;;;;;;5111802;28;20091;-40
2024/01/01 06:30:34;;;;;;;2.42;2.22;;;21.60;44.90;;;;;;5110758;28;20032;-40
2024/01/01 06:33:04;;;;;;;2.70;2.28;;;21.70;45.10;;;;;;5113017;28;20028;-45
2024/01/01 06:35:30;;;;;;;2.35;2.00;;;21.80;45.00;;;;;;5114862;28;20042;-42
2024/01/01 06:37:57;;;;;;;2.58;2.28;;;21.90;44.80;;;;;;5111440;28;20073;-37
2024/01/01 06:40:23;;;;;;;2.53;2.30;;;22.00;44.80;;;;;;5117603;28;20155;-41
2024/01/01 06:42:49;;;;;;;2.47;2.20;;;22.00;44.80;;;;;;5120984;28;20042;-40
2024/01/01 06:45:15;;;;;;;3.40;2.97;;;22.00;44.70;;;;;;5106340;28;20055;-41
2024/01/01 06:47:42;;;;;;;3.88;2.63;;;22.00;44.80;;;;;;5110983;28;20080;-39
2024/01/01 06:50:08;;;;;;;3.28;2.60;;;21.90;44.90;;;;;;5114188;28;20055;-41
2024/01/01 06:52:34;;;;;;;4.47;2.80;;;21.80;45.00;;;;;;5110585;28;20039;-41
2024/01/01 06:55:01;;;;;;;3.08;2.78;;;21.70;45.00;;;;;;5111469;28;20277;-41
2024/01/01 06:57:27;;;;;;;3.75;2.90;;;21.80;44.90;;;;;;5108294;28;20020;-41
2024/01/01 06:59:54;;;;;;;3.63;3.15;;;21.80;44.80;;;;;;5116767;28;20084;-40
2024/01/01 07:02:20;;;;;;;3.13;2.80;;;21.70;45.00;;;;;;5116504;28;20069;-40
2024/01/01 07:04:46;;;;;;;6.13;3.50;;;21.60;45.00;;;;;;5109816;28;20106;-38
2024/01/01 07:07:13;;;;;;;3.78;2.80;;;21.60;45.10;;;;;;5107568;28;20028;-40
2024/01/01 07:09:40;;;;;;;3.28;2.92;;;21.50;45.20;;;;;;5114943;28;20039;-41
2024/01/01 07:12:20;;;;;;;3.75;3.35;;;21.50;45.10;;;;;;5115866;27;20057;-40
2024/01/01 07:14:47;;;;;;;4.05;3.65;;;21.70;45.00;;;;;;5111346;28;20027;-40
2024/01/01 07:17:13;;;;;;;4.32;3.65;;;21.80;44.80;;;;;;5119424;28;20476;-41
2024/01/01 07:19:39;;;;;;;4.57;3.92;;;22.00;44.50;;;;;;5113451;27;20032;-38
2024/01/01 07:22:06;;;;;;;5.22;3.83;;;22.00;44.70;;;;;;5120082;28;20051;-37
2024/01/01 07:24:32;;;;;;;5.60;4.40;;;22.00;44.60;;;;;;5118718;28;20048;-39
2024/01/01 07:26:58;;;;;;;5.53;4.28;;;22.00;44.50;;;;;;5116087;28;20725;-38
2024/01/01 07:29:24;;;;;;;5.53;4.60;;;22.10;44.40;;;;;;5110878;28;20024;-39
2024/01/01 07:31:51;;;;;;;5.00;4.50;;;22.10;44.30;;;;;;5093470;28;20040;-38
2024/01/01 07:34:19;;;;;;;;;;;22.00;44.40;;;;;;5120874;28;20061;-38
2024/01/01 07:36:45;;;;;;;6.28;4.63;;;22.00;44.50;;;;;;5112416;27;19983;-40
2024/01/01 07:39:11;;;;;;;4.57;4.18;;;21.90;44.60;;;;;;5116539;27;20044;-38
2024/01/01 07:41:37;;;;;;;5.72;5.00;;;21.90;44.70;;;;;;5110737;28;20039;-39
2024/01/01 07:44:04;;;;;;;5.15;4.65;;;21.90;44.70;;;;;;5111013;27;20096;-37
2024/01/01 07:46:30;;;;;;;5.28;4.78;;;21.90;44.60;;;;;;5113604;28;20024;-38
2024/01/01 07:48:59;;;;;;;5.93;5.35;;;21.90;44.60;;;;;;5112759;28;20073;-38
2024/01/01 07:51:26;;;;;;;6.93;4.88;;;21.90;44.50;;;;;;5111810;27;20086;-39
2024/01/01 07:53:52;;;;;;;5.38;4.70;;;21.80;44.50;;;;;;5107900;28;20043;-37
2024/01/01 07:56:18;;;;;;;5.28;4.78;;;21.80;44.60;;;;;;5108978;28;20027;-39
2024/01/01 07:58:44;;;;;;;5.63;5.10;;;21.80;44.70;;;;;;5110695;28;20028;-37
2024/01/01 08:01:10;;;;;;;5.60;5.00;;;21.90;44.60;;;;;;5112206;28;20027;-37
2024/01/01 08:03:36;;;;;;;6.50;5.70;;;21.80;44.70;;;;;;5109013;28;20023;-37
2024/01/01 08:06:02;;;;;;;5.75;5.13;;;21.90;44.50;;;;;;5120895;28;20043;-37
2024/01/01 08:08:29;;;;;;;5.40;4.60;;;21.90;44.50;;;;;;5121696;27;20020;-38
2024/01/01 08:10:55;;;;;;;5.65;5.07;;;21.90;44.40;;;;;;5114803;28;20091;-38
2024/01/01 08:13:21;;;;;;;5.82;5.22;;;22.00;44.40;;;;;;5115232;28;20043;-36
2024/01/01 08:15:47;;;;;;;5.47;4.90;;;22.00;44.30;;;;;;5108375;28;20028;-39
2024/01/01 08:18:13;;;;;;;6.05;5.10;;;22.00;44.20;;;;;;5114121;28;20031;-39
2024/01/01 08:20:39;;;;;;;5.47;4.97;;;22.00;44.30;;;;;;5109684;28;20126;-36
2024/01/01 08:23:05;;;;;;;5.30;4.80;;;21.90;44.30;;;;;;5111156;28;20054;-38
2024/01/01 08:25:32;;;;;;;5.30;4.80;;;21.90;44.50;;;;;;5109678;28;20031;-38
2024/01/01 08:27:58;;;;;;;5.38;4.88;;;21.90;44.50;;;;;;5110874;28;20026;-37
2024/01/01 08:30:24;;;;;;;5.73;5.13;;;21.90;44.40;;;;;;5106109;28;20057;-38
2024/01/01 08:32:50;;;;;;;5.30;4.80;;;21.90;44.40;;;;;;5106065;28;20024;-38
2024/01/01 08:35:17;;;;;;;6.32;4.93;;;21.90;44.40;;;;;;5109535;28;20032;-38
2024/01/01 08:37:43;;;;;;;5.13;4.65;;;21.90;44.40;;;;;;5107789;28;20045;-39
2024/01/01 08:40:13;;;;;;;5.40;4.78;;;21.80;44.40;;;;;;5104760;28;20047;-38
2024/01/01 08:42:39;;;;;;;6.15;5.55;;;21.80;44.50;;;;;;5112119;28;20028;-38
2024/01/01 08:45:05;;;;;;;5.30;4.80;;;21.80;44.40;;;;;;5115074;28;20055;-39
2024/01/01 08:47:31;;;;;;;5.60;5.10;;;21.80;44.40;;;;;;5111213;28;20054;-39
2024/01/01 08:49:58;;;;;;;5.88;5.32;;;21.80;44.40;;;;;;5116975;28;20131;-39
2024/01/01 08:52:24;;;;;;;6.15;5.55;;;21.80;44.30;;;;;;5107345;27;20024;-36
2024/01/01 08:54:50;;;;;;;6.00;5.40;;;21.90;44.30;;;;;;5114226;28;20023;-38
2024/01/01 08:57:16;;;;;;;5.35;4.85;;;21.90;44.30;;;;;;5116567;28;20028;-36
2024/01/01 08:59:42;;;;;;;6.30;5.70;;;22.00;44.30;;;;;;5105980;28;20028;-35
2024/01/01 09:02:09;;;;;;;6.45;5.70;;;22.00;44.20;;;;;;5115780;27;20033;-39
2024/01/01 09:04:35;;;;;;;5.68;5.18;;;22.00;44.20;;;;;;5114626;27;20032;-39
2024/01/01 09:07:03;;;;;;;6.43;5.38;;;21.90;44.30;;;;;;5113126;28;20035;-35
2024/01/01 09:09:29;;;;;;;6.00;5.45;;;21.80;44.40;;;;;;5116699;28;20047;-38
2024/01/01 09:11:56;;;;;;;6.57;5.97;;;21.80;44.50;;;;;;5112068;28;20032;-37
2024/01/01 09:14:22;;;;;;;6.50;5.90;;;21.80;44.40;;;;;;5116140;28;20031;-35
2024/01/01 09:16:51;;;;;;;6.30;5.67;;;21.90;44.30;;;;;;5113454;28;20035;-37
2024/01/01 09:19:17;;;;;;;6.82;6.22;;;21.90;44.40;;;;;;5110034;28;20151;-37
2024/01/01 09:21:44;;;;;;;6.07;5.47;;;21.80;44.30;;;;;;5113537;28;20031;-38
2024/01/01 09:24:10;;;;;;;6.63;5.78;;;21.80;44.30;;;;;;5116189;28;20529;-38
2024/01/01 09:26:37;;;;;;;6.35;5.68;;;21.70;44.40;;;;;;5111197;28;20040;-37
2024/01/01 09:29:06;;;;;;;6.88;5.68;;;21.80;44.50;;;;;;5113988;28;20036;-39
2024/01/01 09:31:33;;;;;;;6.38;5.78;;;21.80;44.40;;;;;;5116085;28;20040;-39
2024/01/01 09:34:00;;;;;;;6.38;5.75;;;21.80;44.40;;;;;;5114739;28;20028;-38
2024/01/01 09:36:29;;;;;;;8.27;6.43;;;21.80;44.50;;;;;;5117041;28;20024;-38
2024/01/01 09:38:55;;;;;;;6.53;5.82;;;21.70;44.50;;;;;;5117739;28;20024;-38
2024/01/01 09:41:25;;;;;;;7.07;6.00;;;21.70;44.40;;;;;;5115330;28;20042;-37
2024/01/01 09:43:54;;;;;;;6.95;5.75;;;21.70;44.40;;;;;;5116635;27;20729;-38
2024/01/01 09:46:21;;;;;;;6.47;5.88;;;21.70;44.40;;;;;;5111527;28;20032;-39
2024/01/01 09:48:47;;;;;;;6.95;6.03;;;21.70;44.40;;;;;;5117701;28;20020;-39
2024/01/01 09:51:13;;;;;;;5.97;5.38;;;21.70;44.60;;;;;;5108943;28;20037;-37
2024/01/01 09:53:46;;;;;;;6.38;5.68;;;21.70;44.60;;;;;;5112719;28;20118;-39
2024/01/01 09:56:12;;;;;;;6.32;5.55;;;21.70;44.70;;;;;;5111457;28;20053;-35
2024/01/01 09:58:45;;;;;;;5.78;5.22;;;21.60;44.50;;;;;;5123808;27;20020;-39
2024/01/01 10:01:21;;;;;;;6.90;6.30;;;21.70;44.50;;;;;;5106896;28;20032;-38
2024/01/01 10:04:04;;;;;;;6.97;5.90;;;21.70;44.50;;;;;;5114760;27;20449;-37
2024/01/01 10:06:31;;;;;;;7.38;6.60;;;21.60;44.40;;;;;;5112105;28;20046;-42
2024/01/01 10:09:10;;;;;;;6.90;6.20;;;21.60;44.50;;;;;;5109629;28;20090;-39
2024/01/01 10:11:44;;;;;;;7.40;5.38;;;21.60;44.60;;;;;;5111188;28;20027;-36
2024/01/01 10:14:11;;;;;;;6.45;5.85;;;21.60;44.60;;;;;;5109460;28;20027;-38
2024/01/01 10:16:40;;;;;;;6.63;6.03;;;21.60;45.10;;;;;;5108324;28;20052;-38
2024/01/01 10:19:07;;;;;;;6.68;6.03;;;21.60;44.50;;;;;;5103624;28;20175;-38
2024/01/01 10:21:38;;;;;;;7.13;6.43;;;21.60;44.60;;;;;;5107997;28;20067;-38
2024/01/01 10:24:18;;;;;;;7.40;6.28;;;21.50;44.50;;;;;;5110341;28;20032;-38
2024/01/01 10:26:48;;;;;;;6.50;5.90;;;21.50;44.50;;;;;;5111218;28;20031;-36
2024/01/01 10:29:15;;;;;;;6.25;5.65;;;21.60;44.50;;;;;;5112743;28;20027;-38
2024/01/01 10:31:48;;;;;;;7.55;6.75;;;21.60;44.50;;;;;;5109562;28;20040;-38
2024/01/01 10:34:18;;;;;;;7.20;6.40;;;21.60;44.60;;;;;;5118967;28;20078;-35
2024/01/01 10:36:44;;;;;;;6.80;6.13;;;21.50;44.60;;;;;;5128521;28;20024;-35
2024/01/01 10:39:11;;;;;;;6.85;6.15;;;21.50;44.60;;;;;;5121290;27;20028;-38
2024/01/01 10:41:38;;;;;;;6.82;5.78;;;21.50;44.60;;;;;;5114761;28;20057;-37
2024/01/01 10:44:08;;;;;;;6.93;6.22;;;21.50;44.60;;;;;;5109919;28;20200;-36
2024/01/01 10:46:38;;;;;;;6.78;6.10;;;21.50;44.60;;;;;;5117319;28;20119;-37
2024/01/01 10:49:16;;;;;;;6.47;5.88;;;21.50;44.60;;;;;;5117239;28;20028;-36
2024/01/01 10:51:50;;;;;;;6.95;6.28;;;21.50;44.70;;;;;;5096339;28;20040;-37
2024/01/01 10:54:54;;;;;;;7.40;6.70;;;21.50;44.70;;;;;;5124341;28;20042;-38
2024/01/01 10:57:35;;;;;;;7.00;6.30;;;21.50;44.60;;;;;;5113955;28;20038;-36
2024/01/01 11:00:33;;;;;;;7.10;6.40;;;21.50;44.60;;;;;;5095293;28;20035;-37
2024/01/01 11:02:59;;;;;;;8.10;6.25;;;21.50;44.70;;;;;;5113685;28;20027;-36
2024/01/01 11:05:33;;;;;;;7.60;6.30;;;21.50;44.70;;;;;;5113187;27;20043;-38
2024/01/01 11:08:00;;;;;;;6.75;6.05;;;21.50;44.70;;;;;;5092755;28;20019;-37
2024/01/01 11:10:45;;;;;;;6.57;5.88;;;21.50;44.70;;;;;;5111241;28;20392;-37
2024/01/01 11:13:26;;;;;;;6.63;5.63;;;21.50;44.60;;;;;;5110717;27;20085;-38
2024/01/01 11:16:06;;;;;;;7.07;6.38;;;21.50;44.70;;;;;;5112240;28;20032;-38
2024/01/01 11:18:32;;;;;;;6.93;6.22;;;21.50;44.60;;;;;;5091329;28;20477;-34
2024/01/01 11:21:02;;;;;;;6.38;5.78;;;21.50;44.70;;;;;;5111656;28;20035;-37
2024/01/01 11:23:44;;;;;;;6.68;6.07;;;21.40;44.70;;;;;;5110848;28;20503;-38
2024/01/01 11:26:23;;;;;;;7.00;6.18;;;21.50;44.70;;;;;;5114465;27;20075;-33
2024/01/01 11:28:55;;;;;;;6.47;5.78;;;21.50;44.60;;;;;;5117319;28;20023;-37
2024/01/01 11:31:22;;;;;;;6.65;5.90;;;21.50;44.70;;;;;;5112493;27;20040;-37
2024/01/01 11:34:10;;;;;;;7.18;6.40;;;21.50;44.70;;;;;;5106764;28;20567;-38
2024/01/01 11:36:40;;;;;;;7.35;6.45;;;21.40;44.60;;;;;;5124430;27;20031;-37
2024/01/01 11:39:06;;;;;;;6.32;5.65;;;21.40;44.70;;;;;;5119789;28;21690;-38
2024/01/01 11:41:33;;;;;;;6.20;5.60;;;21.40;44.60;;;;;;5115295;28;20042;-38
2024/01/01 11:44:12;;;;;;;6.43;5.82;;;21.50;44.60;;;;;;5117890;27;20091;-38
2024/01/01 11:46:39;;;;;;;6.25;5.63;;;21.40;44.70;;;;;;5113131;28;20056;-38
2024/01/01 11:49:05;;;;;;;6.45;5.75;;;21.40;44.70;;;;;;5122938;28;20054;-38
2024/01/01 11:51:32;;;;;;;6.93;5.88;;;21.40;44.70;;;;;;5114481;28;20060;-38
2024/01/01 11:54:08;;;;;;;6.30;5.70;;;21.40;44.70;;;;;;5114128;28;20032;-38
2024/01/01 11:56:35;;;;;;;6.85;5.78;;;21.40;44.60;;;;;;5097558;28;20040;-38
2024/01/01 11:59:02;;;;;;;6.88;6.22;;;21.40;44.70;;;;;;5113420;28;20023;-38
2024/01/01 12:01:29;;;;;;;5.80;5.20;;;21.40;44.60;;;;;;5114210;28;20043;-38
2024/01/01 12:03:56;;;;;;;;;;;21.40;44.70;;;;;;5115724;27;20027;-36
2024/01/01 12:06:22;;;;;;;6.90;6.07;;;21.40;44.70;;;;;;5114383;28;20014;-38
2024/01/01 12:08:49;;;;;;;6.82;6.22;;;21.40;44.70;;;;;;5111981;28;20024;-39
2024/01/01 12:11:19;;;;;;;6.35;5.63;;;21.40;44.60;;;;;;5105369;28;20028;-35
2024/01/01 12:13:56;;;;;;;6.47;5.80;;;21.40;44.70;;;;;;5109473;28;20039;-39
2024/01/01 12:16:22;;;;;;;6.20;5.57;;;21.40;44.70;;;;;;5108177;27;20118;-37
2024/01/01 12:18:55;;;;;;;6.50;5.45;;;21.40;44.70;;;;;;5106777;28;20020;-36
2024/01/01 12:21:21;;;;;;;6.20;5.57;;;21.40;44.60;;;;;;5112153;27;20039;-39
2024/01/01 12:23:48;;;;;;;5.70;5.10;;;21.40;44.70;;;;;;5111535;28;20027;-37
2024/01/01 12:26:21;;;;;;;6.75;6.05;;;21.40;44.60;;;;;;5089698;28;20031;-39
2024/01/01 12:28:54;;;;;;;6.25;5.65;;;21.40;44.60;;;;;;5112957;28;20028;-38
2024/01/01 12:31:20;;;;;;;5.97;5.38;;;21.40;44.70;;;;;;5090143;28;20024;-37
2024/01/01 12:33:50;;;;;;;6.13;5.50;;;21.40;44.80;;;;;;5110038;27;20019;-38
2024/01/01 12:36:16;;;;;;;6.13;5.43;;;21.30;44.60;;;;;;5116180;28;20047;-39
2024/01/01 12:38:42;;;;;;;6.50;5.80;;;21.40;44.70;;;;;;5114707;28;20054;-37
2024/01/01 12:41:15;;;;;;;7.10;5.55;;;21.40;44.60;;;;;;5110413;28;20047;-39
2024/01/01 12:43:41;;;;;;;6.63;5.93;;;21.40;44.70;;;;;;5108327;28;20078;-37
2024/01/01 12:46:08;;;;;;;6.20;5.60;;;21.40;44.70;;;;;;5110761;28;20036;-43
2024/01/01 12:48:34;;;;;;;6.35;5.55;;;21.40;44.70;;;;;;5111743;28;20039;-38
2024/01/01 12:51:01;;;;;;;6.55;5.88;;;21.40;44.70;;;;;;5113773;28;20039;-38